createdAt,value
2022-09-27T00:01:45.532Z,12.17
2022-09-27T00:04:50.562Z,12.16
2022-09-27T00:07:57.652Z,12.14
2022-09-27T00:11:07.069Z,12.10
2022-09-27T00:14:14.114Z,12.09
2022-09-27T00:17:18.588Z,12.04
2022-09-27T00:20:23.935Z,12.06
2022-09-27T00:23:30.983Z,12.09
2022-09-27T00:26:36.319Z,12.09
2022-09-27T00:29:41.494Z,12.07
2022-09-27T00:32:46.330Z,12.04
2022-09-27T00:35:51.473Z,12.03
2022-09-27T00:39:00.243Z,12.06
2022-09-27T00:42:05.023Z,12.08
2022-09-27T00:45:15.746Z,12.06
2022-09-27T00:48:25.395Z,12.00
2022-09-27T00:51:30.427Z,12.06
2022-09-27T00:54:39.578Z,12.09
2022-09-27T00:57:47.030Z,12.03
2022-09-27T01:00:57.323Z,11.98
2022-09-27T01:04:07.670Z,11.96
2022-09-27T01:07:12.907Z,12.01
2022-09-27T01:10:20.787Z,12.04
2022-09-27T01:13:32.317Z,12.08
2022-09-27T01:16:46.579Z,12.09
2022-09-27T01:20:20.621Z,12.06
2022-09-27T01:23:54.242Z,12.04
2022-09-27T01:27:29.584Z,12.04
2022-09-27T01:30:44.156Z,12.03
2022-09-27T01:33:53.123Z,12.08
2022-09-27T01:37:09.657Z,12.03
2022-09-27T01:40:25.068Z,12.00
2022-09-27T01:43:35.405Z,12.01
2022-09-27T01:46:45.343Z,12.04
2022-09-27T01:49:56.059Z,11.99
2022-09-27T01:53:06.270Z,11.95
2022-09-27T01:56:16.016Z,11.92
2022-09-27T01:59:26.088Z,11.93
2022-09-27T02:02:37.239Z,11.87
2022-09-27T02:05:46.054Z,11.88
2022-09-27T02:08:57.152Z,11.89
2022-09-27T02:12:07.298Z,11.87
2022-09-27T02:15:16.260Z,11.90
2022-09-27T02:18:31.740Z,11.88
2022-09-27T02:21:44.075Z,11.88
2022-09-27T02:24:55.726Z,11.88
2022-09-27T02:28:10.808Z,11.82
2022-09-27T02:31:16.061Z,11.79
2022-09-27T02:34:25.971Z,11.79
2022-09-27T02:37:31.112Z,11.67
2022-09-27T02:40:38.513Z,11.57
2022-09-27T02:43:47.402Z,11.54
2022-09-27T02:47:10.102Z,11.54
2022-09-27T02:50:38.819Z,11.51
2022-09-27T02:53:58.359Z,11.51
2022-09-27T02:57:14.097Z,11.51
2022-09-27T03:00:21.948Z,11.44
2022-09-27T03:03:33.508Z,11.44
2022-09-27T03:06:42.652Z,11.34
2022-09-27T03:09:50.178Z,11.28
2022-09-27T03:12:55.256Z,11.22
2022-09-27T03:16:01.735Z,11.26
2022-09-27T03:19:09.299Z,11.22
2022-09-27T03:22:15.757Z,11.17
2022-09-27T03:25:21.783Z,11.13
2022-09-27T03:28:30.386Z,11.13
2022-09-27T03:31:35.354Z,11.07
2022-09-27T03:34:40.307Z,11.10
2022-09-27T03:37:47.903Z,11.16
2022-09-27T03:40:53.350Z,11.16
2022-09-27T03:44:00.209Z,11.16
2022-09-27T03:47:05.175Z,11.14
2022-09-27T03:50:10.951Z,11.07
2022-09-27T03:53:18.421Z,11.11
2022-09-27T03:56:23.294Z,11.06
2022-09-27T03:59:28.297Z,11.07
2022-09-27T04:02:33.600Z,11.11
2022-09-27T04:05:38.301Z,11.12
2022-09-27T04:08:46.479Z,11.20
2022-09-27T04:11:51.937Z,11.17
2022-09-27T04:14:56.923Z,11.17
2022-09-27T04:18:01.569Z,11.19
2022-09-27T04:21:06.899Z,11.11
2022-09-27T04:24:13.309Z,11.20
2022-09-27T04:27:18.214Z,11.15
2022-09-27T04:30:23.503Z,11.13
2022-09-27T04:33:28.844Z,11.12
2022-09-27T04:36:32.823Z,11.14
2022-09-27T04:39:40.382Z,11.16
2022-09-27T04:42:45.379Z,11.11
2022-09-27T04:45:50.472Z,11.12
2022-09-27T04:48:55.475Z,11.14
2022-09-27T04:52:00.704Z,11.21
2022-09-27T04:55:07.441Z,11.21
2022-09-27T04:58:12.579Z,11.21
2022-09-27T05:01:17.674Z,11.20
2022-09-27T05:04:22.765Z,11.12
2022-09-27T05:07:28.042Z,11.12
2022-09-27T05:10:34.617Z,11.22
2022-09-27T05:13:39.696Z,11.19
2022-09-27T05:16:45.324Z,11.13
2022-09-27T05:19:50.553Z,11.16
2022-09-27T05:22:55.914Z,11.10
2022-09-27T05:26:04.830Z,11.16
2022-09-27T05:29:07.539Z,11.21
2022-09-27T05:32:10.319Z,11.24
2022-09-27T05:35:13.218Z,11.17
2022-09-27T05:38:16.034Z,11.17
2022-09-27T05:41:20.235Z,11.13
2022-09-27T05:44:23.017Z,11.05
2022-09-27T05:47:25.768Z,11.05
2022-09-27T05:50:29.058Z,11.07
2022-09-27T05:53:32.407Z,11.07
2022-09-27T05:56:36.519Z,11.01
2022-09-27T05:59:39.285Z,11.03
2022-09-27T06:02:42.972Z,10.99
2022-09-27T06:05:50.524Z,10.96
2022-09-27T06:08:54.310Z,11.02
2022-09-27T06:11:59.103Z,11.04
2022-09-27T06:15:01.795Z,11.07
2022-09-27T06:18:06.336Z,11.09
2022-09-27T06:21:09.058Z,11.03
2022-09-27T06:24:12.618Z,11.01
2022-09-27T06:27:17.351Z,11.09
2022-09-27T06:30:20.659Z,11.16
2022-09-27T06:33:23.548Z,11.32
2022-09-27T06:36:26.381Z,11.34
2022-09-27T06:39:29.138Z,11.41
2022-09-27T06:42:33.530Z,11.39
2022-09-27T06:45:37.014Z,11.27
2022-09-27T06:48:39.697Z,11.27
2022-09-27T06:51:42.956Z,11.18
2022-09-27T06:54:45.690Z,11.06
2022-09-27T06:58:07.094Z,11.08
2022-09-27T07:01:10.329Z,11.12
2022-09-27T07:04:14.252Z,11.07
2022-09-27T07:07:16.969Z,10.93
2022-09-27T07:10:21.779Z,10.96
2022-09-27T07:13:30.193Z,10.92
2022-09-27T07:16:35.377Z,10.95
2022-09-27T07:19:40.333Z,10.98
2022-09-27T07:22:45.978Z,11.07
2022-09-27T07:25:51.119Z,11.17
2022-09-27T07:28:58.306Z,11.14
2022-09-27T07:32:03.725Z,11.07
2022-09-27T07:35:10.631Z,11.07
2022-09-27T07:38:15.931Z,11.11
2022-09-27T07:41:21.013Z,11.14
2022-09-27T07:44:25.687Z,11.17
2022-09-27T07:47:28.527Z,11.22
2022-09-27T07:50:31.229Z,11.45
2022-09-27T07:53:33.999Z,11.59
2022-09-27T07:56:36.766Z,11.61
2022-09-27T07:59:41.053Z,11.68
2022-09-27T08:02:44.242Z,11.81
2022-09-27T08:05:48.177Z,11.96
2022-09-27T08:08:51.318Z,12.02
2022-09-27T08:11:54.100Z,12.01
2022-09-27T08:15:01.321Z,11.93
2022-09-27T08:18:04.069Z,11.85
2022-09-27T08:21:07.263Z,11.91
2022-09-27T08:24:10.047Z,12.02
2022-09-27T08:27:13.380Z,12.19
2022-09-27T08:30:17.650Z,12.29
2022-09-27T08:33:20.390Z,12.39
2022-09-27T08:36:24.045Z,12.63
2022-09-27T08:39:26.808Z,12.85
2022-09-27T08:42:41.521Z,12.78
2022-09-27T08:45:59.885Z,12.68
2022-09-27T08:49:10.965Z,12.68
2022-09-27T08:52:21.547Z,12.64
2022-09-27T08:55:30.664Z,12.51
2022-09-27T08:58:36.801Z,12.50
2022-09-27T09:01:41.346Z,12.40
2022-09-27T09:04:46.653Z,12.39
2022-09-27T09:08:16.386Z,12.36
2022-09-27T09:11:46.329Z,12.21
2022-09-27T09:15:11.704Z,12.01
2022-09-27T09:18:31.123Z,12.01
2022-09-27T09:21:45.941Z,12.03
2022-09-27T09:25:02.563Z,12.07
2022-09-27T09:28:19.649Z,12.15
2022-09-27T09:31:33.493Z,12.31
2022-09-27T09:34:42.538Z,12.48
2022-09-27T09:37:50.564Z,12.75
2022-09-27T09:40:59.634Z,13.34
2022-09-27T09:44:05.532Z,13.87
2022-09-27T09:47:16.358Z,14.30
2022-09-27T09:50:26.894Z,14.57
2022-09-27T09:53:41.665Z,14.58
2022-09-27T09:56:49.040Z,14.80
2022-09-27T09:59:58.391Z,14.81
2022-09-27T10:03:01.862Z,15.12
2022-09-27T10:06:07.169Z,15.30
2022-09-27T10:09:12.813Z,15.50
2022-09-27T10:12:15.572Z,15.65
2022-09-27T10:15:20.446Z,15.52
2022-09-27T10:18:24.301Z,15.23
2022-09-27T10:21:30.818Z,14.89
2022-09-27T10:24:55.391Z,14.42
2022-09-27T10:27:58.118Z,14.11
2022-09-27T10:31:04.163Z,13.90
2022-09-27T10:34:06.861Z,13.67
2022-09-27T10:37:20.483Z,13.48
2022-09-27T10:40:35.217Z,13.35
2022-09-27T10:43:38.961Z,13.29
2022-09-27T10:46:42.405Z,13.31
2022-09-27T10:49:45.569Z,13.42
2022-09-27T10:52:50.634Z,13.44
2022-09-27T10:55:53.865Z,13.46
2022-09-27T10:58:59.273Z,13.43
2022-09-27T11:02:02.514Z,13.41
2022-09-27T11:05:14.780Z,13.37
2022-09-27T11:08:27.163Z,13.48
2022-09-27T11:11:30.163Z,13.52
2022-09-27T11:14:33.149Z,13.51
2022-09-27T11:17:45.842Z,13.47
2022-09-27T11:20:54.348Z,13.53
2022-09-27T11:24:13.259Z,13.61
2022-09-27T11:27:31.814Z,13.69
2022-09-27T11:30:44.961Z,13.68
2022-09-27T11:34:14.945Z,13.68
2022-09-27T11:37:23.230Z,13.64
2022-09-27T11:40:36.742Z,13.54
2022-09-27T11:44:21.174Z,13.51
2022-09-27T11:47:34.275Z,13.51
2022-09-27T11:50:55.719Z,13.45
2022-09-27T11:54:17.774Z,13.35
2022-09-27T11:57:26.579Z,12.95
2022-09-27T12:00:42.924Z,12.21
2022-09-27T12:04:24.661Z,11.83
2022-09-27T12:07:35.704Z,11.52
2022-09-27T12:10:40.592Z,11.41
2022-09-27T12:13:49.391Z,11.31
2022-09-27T12:16:54.599Z,11.25
2022-09-27T12:20:01.044Z,11.25
2022-09-27T12:23:07.107Z,11.18
2022-09-27T12:26:15.644Z,11.15
2022-09-27T12:29:23.795Z,11.15
2022-09-27T12:32:31.450Z,11.19
2022-09-27T12:35:41.915Z,11.22
2022-09-27T12:38:51.950Z,11.17
2022-09-27T12:42:02.285Z,11.22
2022-09-27T12:45:11.907Z,11.24
2022-09-27T12:48:24.263Z,11.32
2022-09-27T12:51:36.926Z,11.27
2022-09-27T12:55:09.143Z,11.32
2022-09-27T12:58:40.583Z,11.44
2022-09-27T13:02:22.266Z,11.51
2022-09-27T13:05:51.786Z,11.57
2022-09-27T13:09:18.558Z,11.68
2022-09-27T13:12:27.196Z,11.71
2022-09-27T13:15:37.021Z,11.73
2022-09-27T13:19:02.170Z,11.58
2022-09-27T13:22:07.367Z,11.50
2022-09-27T13:25:44.689Z,11.38
2022-09-27T13:29:02.347Z,11.28
2022-09-27T13:32:28.857Z,11.26
2022-09-27T13:35:36.054Z,11.24
2022-09-27T13:38:41.152Z,11.23
2022-09-27T13:42:01.874Z,11.17
2022-09-27T13:45:22.576Z,11.11
2022-09-27T13:48:35.632Z,11.03
2022-09-27T13:51:49.530Z,11.07
2022-09-27T13:54:56.141Z,11.04
2022-09-27T13:58:04.217Z,10.98
2022-09-27T14:01:19.614Z,10.95
2022-09-27T14:04:30.259Z,11.04
2022-09-27T14:07:44.358Z,10.94
2022-09-27T14:10:49.827Z,10.98
2022-09-27T14:13:55.883Z,11.01
2022-09-27T14:17:06.494Z,11.04
2022-09-27T14:20:33.592Z,11.00
2022-09-27T14:23:40.803Z,11.03
2022-09-27T14:26:49.424Z,11.04
2022-09-27T14:29:57.484Z,11.03
2022-09-27T14:33:02.926Z,11.02
2022-09-27T14:36:27.763Z,11.04
2022-09-27T14:39:38.196Z,11.09
2022-09-27T14:42:44.388Z,11.19
2022-09-27T14:45:52.178Z,11.29
2022-09-27T14:48:57.645Z,11.50
2022-09-27T14:52:02.915Z,11.66
2022-09-27T14:55:14.436Z,11.77
2022-09-27T14:58:43.177Z,12.04
2022-09-27T15:01:52.105Z,12.25
2022-09-27T15:04:58.854Z,12.40
2022-09-27T15:08:08.425Z,12.32
2022-09-27T15:11:15.821Z,12.20
2022-09-27T15:14:21.570Z,12.25
2022-09-27T15:17:27.032Z,12.19
2022-09-27T15:20:35.987Z,12.27
2022-09-27T15:23:42.772Z,12.35
2022-09-27T15:26:49.734Z,12.33
2022-09-27T15:29:56.795Z,12.32
2022-09-27T15:33:01.905Z,12.36
2022-09-27T15:36:08.783Z,12.25
2022-09-27T15:39:20.611Z,12.19
2022-09-27T15:42:27.030Z,12.22
2022-09-27T15:45:34.126Z,12.14
2022-09-27T15:48:38.987Z,12.10
2022-09-27T15:51:46.090Z,12.06
2022-09-27T15:54:53.025Z,11.93
2022-09-27T15:58:03.071Z,11.87
2022-09-27T16:01:08.374Z,11.91
2022-09-27T16:04:13.382Z,11.88
2022-09-27T16:07:18.455Z,11.86
2022-09-27T16:10:25.550Z,11.84
2022-09-27T16:13:33.336Z,11.72
2022-09-27T16:16:38.641Z,11.72
2022-09-27T16:19:43.956Z,11.73
2022-09-27T16:22:49.078Z,11.66
2022-09-27T16:25:55.411Z,11.69
2022-09-27T16:29:02.333Z,11.66
2022-09-27T16:32:08.791Z,11.64
2022-09-27T16:35:14.779Z,11.58
2022-09-27T16:38:19.835Z,11.54
2022-09-27T16:41:25.469Z,11.53
2022-09-27T16:44:32.294Z,11.54
2022-09-27T16:47:37.629Z,11.47
2022-09-27T16:50:59.709Z,11.44
2022-09-27T16:54:06.063Z,11.50
2022-09-27T16:57:11.426Z,11.46
2022-09-27T17:00:19.453Z,11.39
2022-09-27T17:03:24.437Z,11.43
2022-09-27T17:06:32.413Z,11.48
2022-09-27T17:09:37.725Z,11.46
2022-09-27T17:12:42.965Z,11.50
2022-09-27T17:15:50.095Z,11.50
2022-09-27T17:18:55.220Z,11.58
2022-09-27T17:22:00.225Z,11.53
2022-09-27T17:25:05.963Z,11.39
2022-09-27T17:28:11.065Z,11.32
2022-09-27T17:31:20.039Z,11.25
2022-09-27T17:34:27.070Z,11.30
2022-09-27T17:37:44.223Z,11.21
2022-09-27T17:41:07.199Z,11.11
2022-09-27T17:44:22.650Z,11.05
2022-09-27T17:47:52.429Z,11.04
2022-09-27T17:51:14.259Z,11.10
2022-09-27T17:54:23.918Z,11.09
2022-09-27T17:57:30.030Z,11.16
2022-09-27T18:00:37.633Z,11.14
2022-09-27T18:03:44.172Z,11.25
2022-09-27T18:06:49.807Z,11.23
2022-09-27T18:09:54.757Z,11.19
2022-09-27T18:12:59.735Z,11.13
2022-09-27T18:16:05.468Z,11.09
2022-09-27T18:19:14.836Z,11.11
2022-09-27T18:22:20.831Z,11.16
2022-09-27T18:25:26.597Z,11.11
2022-09-27T18:28:32.857Z,11.01
2022-09-27T18:31:37.840Z,11.04
2022-09-27T18:34:44.504Z,11.00
2022-09-27T18:37:49.674Z,10.95
2022-09-27T18:40:57.966Z,10.93
2022-09-27T18:44:04.990Z,10.82
2022-09-27T18:47:10.324Z,10.87
2022-09-27T18:50:17.229Z,10.77
2022-09-27T18:53:24.790Z,10.72
2022-09-27T18:56:30.824Z,10.68
2022-09-27T18:59:36.534Z,10.62
2022-09-27T19:02:41.637Z,10.53
2022-09-27T19:05:56.728Z,10.41
2022-09-27T19:09:01.862Z,10.43
2022-09-27T19:12:07.189Z,10.36
2022-09-27T19:15:11.502Z,10.38
2022-09-27T19:18:14.186Z,10.32
2022-09-27T19:21:20.041Z,10.31
2022-09-27T19:24:22.673Z,10.29
2022-09-27T19:27:25.607Z,10.25
2022-09-27T19:30:28.256Z,10.15
2022-09-27T19:33:32.912Z,10.14
2022-09-27T19:36:36.988Z,10.11
2022-09-27T19:39:39.634Z,10.07
2022-09-27T19:42:42.357Z,10.08
2022-09-27T19:45:44.958Z,10.08
2022-09-27T19:48:48.413Z,10.04
2022-09-27T19:51:52.458Z,9.98
2022-09-27T19:54:55.466Z,9.89
2022-09-27T19:57:58.099Z,9.85
2022-09-27T20:01:02.393Z,9.87
2022-09-27T20:04:05.013Z,9.86
2022-09-27T20:07:09.063Z,9.77
2022-09-27T20:10:12.104Z,9.72
2022-09-27T20:13:14.728Z,9.64
2022-09-27T20:16:19.060Z,9.65
2022-09-27T20:19:21.689Z,9.62
2022-09-27T20:22:25.765Z,9.58
2022-09-27T20:25:29.404Z,9.61
2022-09-27T20:28:32.229Z,9.58
2022-09-27T20:31:37.221Z,9.59
2022-09-27T20:34:39.994Z,9.67
2022-09-27T20:38:04.555Z,9.68
2022-09-27T20:41:07.381Z,9.73
2022-09-27T20:44:11.788Z,9.74
2022-09-27T20:47:14.418Z,9.81
2022-09-27T20:50:17.104Z,9.91
2022-09-27T20:53:21.138Z,9.98
2022-09-27T20:56:26.625Z,9.99
2022-09-27T20:59:31.341Z,10.13
2022-09-27T21:02:34.072Z,10.13
2022-09-27T21:05:36.850Z,10.14
2022-09-27T21:08:41.528Z,10.16
2022-09-27T21:11:44.167Z,10.20
2022-09-27T21:14:46.822Z,10.17
2022-09-27T21:17:50.229Z,10.21
2022-09-27T21:21:00.042Z,10.20
2022-09-27T21:24:05.040Z,10.18
2022-09-27T21:27:07.647Z,10.19
2022-09-27T21:30:11.558Z,10.16
2022-09-27T21:33:14.145Z,10.25
2022-09-27T21:36:16.924Z,10.25
2022-09-27T21:39:20.938Z,10.26
2022-09-27T21:42:23.636Z,10.30
2022-09-27T21:45:26.635Z,10.27
2022-09-27T21:48:30.267Z,10.30
2022-09-27T21:51:36.527Z,10.25
2022-09-27T21:54:41.146Z,10.28
2022-09-27T21:57:43.781Z,10.35
2022-09-27T22:00:46.444Z,10.32
2022-09-27T22:03:50.157Z,10.32
2022-09-27T22:06:54.358Z,10.31
2022-09-27T22:09:58.459Z,10.40
2022-09-27T22:13:01.111Z,10.36
2022-09-27T22:16:05.408Z,10.38
2022-09-27T22:19:08.416Z,10.32
2022-09-27T22:22:11.033Z,10.40
2022-09-27T22:25:15.052Z,10.36
2022-09-27T22:28:17.715Z,10.39
2022-09-27T22:31:20.928Z,10.40
2022-09-27T22:34:29.912Z,10.38
2022-09-27T22:37:32.882Z,10.37
2022-09-27T22:40:37.580Z,10.33
2022-09-27T22:43:40.754Z,10.37
2022-09-27T22:46:44.099Z,10.33
2022-09-27T22:49:46.789Z,10.31
2022-09-27T22:52:49.599Z,10.32
2022-09-27T22:56:05.186Z,10.25
2022-09-27T22:59:07.812Z,10.19
2022-09-27T23:02:10.550Z,10.15
2022-09-27T23:05:13.181Z,10.12
2022-09-27T23:08:16.300Z,10.12
2022-09-27T23:11:22.053Z,10.11
2022-09-27T23:14:26.093Z,10.13
2022-09-27T23:17:28.718Z,10.07
2022-09-27T23:20:31.332Z,10.09
2022-09-27T23:23:34.641Z,10.09
2022-09-27T23:26:38.705Z,10.06
2022-09-27T23:29:41.298Z,10.00
2022-09-27T23:32:45.171Z,10.02
2022-09-27T23:35:47.898Z,9.98
2022-09-27T23:38:50.739Z,9.98
2022-09-27T23:41:54.685Z,10.02
2022-09-27T23:44:57.304Z,10.06
2022-09-27T23:48:00.081Z,9.96
2022-09-27T23:51:03.524Z,10.02
2022-09-27T23:54:06.272Z,10.01
2022-09-27T23:57:10.240Z,10.02
